ADDS METAR Data INFO
IDs: Format: Raw Decoded Include TAF

Data at: 2234 UTC 22 Aug 2017

KPOY 222215Z AUTO 07005KT 10SM CLR 30/M03 A3017 RMK AO2
KPOY 222155Z AUTO 09007KT 10SM CLR 29/M03 A3018 RMK AO2
KPOY 222135Z AUTO 00000KT 10SM CLR 29/M02 A3018 RMK AO2
KPOY 222115Z AUTO 11011G14KT 10SM CLR 29/M02 A3018 RMK AO2
KPOY 222055Z AUTO 11011G15KT 10SM CLR 28/M02 A3020 RMK AO2
KPOY 222035Z AUTO 17006G17KT 10SM CLR 28/M01 A3020 RMK AO2 LTG DSNT SW
KPOY 222015Z AUTO 15012KT 10SM CLR 28/M01 A3021 RMK AO2
KPOY 221955Z AUTO 16011G15KT 10SM CLR 28/00 A3021 RMK AO2
KPOY 221935Z AUTO 11009G15KT 10SM CLR 28/M01 A3022 RMK AO2
KPOY 221915Z AUTO 12008G14KT 10SM CLR 27/M02 A3022 RMK AO2
KPOY 221855Z AUTO 14009KT 10SM CLR 27/M02 A3022 RMK AO2
KPOY 221835Z AUTO 15009KT 10SM CLR 26/M02 A3023 RMK AO2
KPOY 221815Z AUTO 13008KT 10SM CLR 26/M02 A3024 RMK AO2
KPOY 221755Z AUTO 13007KT 10SM CLR 25/M02 A3024 RMK AO2
KPOY 221735Z AUTO 15009KT 114V174 10SM CLR 25/M02 A3025 RMK AO2
KPOY 221715Z AUTO 13008KT 10SM CLR 23/M01 A3025 RMK AO2
KPOY 221655Z AUTO 11007KT 10SM CLR 23/M01 A3025 RMK AO2
KPOY 221635Z AUTO 14004KT 10SM CLR 23/M01 A3026 RMK AO2
KPOY 221615Z AUTO 13005KT 10SM CLR 22/00 A3026 RMK AO2
KPOY 221555Z AUTO 15007KT 10SM CLR 22/M01 A3026 RMK AO2
KPOY 221535Z AUTO 14003KT 10SM CLR 22/M02 A3026 RMK AO2
KPOY 221515Z AUTO 00000KT 10SM CLR 21/M03 A3026 RMK AO2
KPOY 221455Z AUTO 00000KT 10SM CLR 20/M03 A3026 RMK AO2
KPOY 221435Z AUTO 00000KT 10SM CLR 18/M03 A3026 RMK AO2
KPOY 221415Z AUTO 00000KT 10SM CLR 17/M02 A3026 RMK AO2
KPOY 221355Z AUTO 00000KT 10SM CLR 16/M02 A3026 RMK AO2
KPOY 221335Z AUTO 00000KT 10SM CLR 15/M03 A3026 RMK AO2
KPOY 221315Z AUTO 00000KT 10SM CLR 14/M03 A3026 RMK AO2
KPOY 221255Z AUTO 00000KT 10SM CLR 15/M03 A3026 RMK AO2
KPOY 221235Z AUTO 00000KT 10SM CLR 13/M03 A3025 RMK AO2
KPOY 221215Z AUTO 06005KT 10SM CLR 13/M03 A3025 RMK AO2
KPOY 221155Z AUTO 05004KT 10SM CLR 15/M03 A3024 RMK AO2
KPOY 221135Z AUTO 04003KT 10SM CLR 13/M03 A3023 RMK AO2
KPOY 221115Z AUTO 00000KT 10SM CLR 14/M03 A3023 RMK AO2
KPOY 221055Z AUTO 00000KT 10SM CLR 16/M03 A3024 RMK AO2
KPOY 221035Z AUTO 16003KT 10SM CLR 15/M03 A3023 RMK AO2
KPOY 221015Z AUTO 00000KT 10SM CLR 13/M02 A3023 RMK AO2
KPOY 220955Z AUTO 24005KT 10SM CLR 12/M02 A3023 RMK AO2
KPOY 220935Z AUTO 23006KT 10SM CLR 13/M03 A3023 RMK AO2
KPOY 220915Z AUTO 24004KT 10SM CLR 13/M03 A3023 RMK AO2
KPOY 220855Z AUTO 25004KT 10SM CLR 15/M03 A3023 RMK AO2
KPOY 220835Z AUTO 26005KT 10SM CLR 14/M03 A3023 RMK AO2
KPOY 220815Z AUTO 27005KT 10SM CLR 14/M03 A3023 RMK AO2
KPOY 220755Z AUTO 27005KT 10SM CLR 14/M03 A3023 RMK AO2
KPOY 220735Z AUTO 27005KT 10SM CLR 14/M03 A3023 RMK AO2
KPOY 220715Z AUTO 26004KT 10SM CLR 14/M03 A3023 RMK AO2
KPOY 220655Z AUTO 27005KT 10SM CLR 14/M03 A3023 RMK AO2
KPOY 220635Z AUTO 26006KT 10SM CLR 13/M03 A3023 RMK AO2
KPOY 220615Z AUTO 27007KT 10SM CLR 14/M03 A3023 RMK AO2
KPOY 220555Z AUTO 27006KT 10SM CLR 13/M03 A3023 RMK AO2
KPOY 220535Z AUTO 27007KT 10SM CLR 14/M03 A3023 RMK AO2
KPOY 220515Z AUTO 25007KT 10SM CLR 15/M03 A3023 RMK AO2
KPOY 220455Z AUTO 23006KT 10SM CLR 15/M04 A3024 RMK AO2
KPOY 220435Z AUTO 00000KT 10SM CLR 17/M03 A3024 RMK AO2
KPOY 220415Z AUTO 35003KT 10SM CLR 18/M03 A3024 RMK AO2
KPOY 220355Z AUTO 00000KT 10SM CLR 17/M03 A3024 RMK AO2
KPOY 220335Z AUTO 32004KT 10SM CLR 17/M04 A3024 RMK AO2
KPOY 220315Z AUTO 32005KT 10SM CLR 17/M04 A3023 RMK AO2
KPOY 220255Z AUTO 34006KT 10SM CLR 18/M04 A3022 RMK AO2
KPOY 220235Z AUTO 34007KT 10SM CLR 18/M04 A3021 RMK AO2
KPOY 220215Z AUTO 33007KT 10SM CLR 20/M04 A3021 RMK AO2
KPOY 220155Z AUTO 34008KT 10SM CLR 21/M04 A3020 RMK AO2
KPOY 220135Z AUTO 34010KT 10SM CLR 22/M05 A3020 RMK AO2
KPOY 220115Z AUTO 33012KT 10SM CLR 22/M04 A3019 RMK AO2
KPOY 220055Z AUTO 35013KT 10SM CLR 23/M04 A3019 RMK AO2
KPOY 220035Z AUTO 33013G17KT 10SM CLR 23/M04 A3020 RMK AO2
KPOY 220015Z AUTO 35012G18KT 10SM CLR 24/M04 A3019 RMK AO2
KPOY 212355Z AUTO 33013G20KT 10SM CLR 25/M04 A3019 RMK AO2
KPOY 212335Z AUTO 35011G17KT 10SM CLR 25/M04 A3020 RMK AO2
KPOY 212315Z AUTO 34012G15KT 10SM CLR 26/M04 A3020 RMK AO2
KPOY 212255Z AUTO 34009G14KT 10SM CLR 25/M04 A3019 RMK AO2
KPOY 212235Z AUTO 35012G17KT 10SM CLR 25/M05 A3020 RMK AO2
KPOY 212215Z AUTO 02008G15KT 10SM CLR 26/M05 A3020 RMK AO2
KPOY 212155Z AUTO 36011KT 10SM CLR 26/M05 A3019 RMK AO2
KPOY 212135Z AUTO 35011G14KT 10SM CLR 26/M05 A3019 RMK AO2
KPOY 212115Z AUTO 01010G15KT 304V034 10SM CLR 25/M05 A3019 RMK AO2
KPOY 212055Z AUTO 36006G15KT 10SM CLR 25/M05 A3020 RMK AO2
KPOY 212035Z AUTO 34008KT 10SM CLR 25/M05 A3021 RMK AO2
KPOY 212015Z AUTO 01007KT 10SM CLR 25/M05 A3021 RMK AO2
KPOY 211955Z AUTO 35008KT 10SM CLR 25/M04 A3021 RMK AO2
KPOY 211935Z AUTO 30007G16KT 10SM CLR 24/M04 A3021 RMK AO2
KPOY 211915Z AUTO 34008G14KT 10SM CLR 24/M03 A3022 RMK AO2
KPOY 211855Z AUTO 34009KT 10SM CLR 23/M04 A3021 RMK AO2
KPOY 211835Z AUTO 33008KT 10SM CLR 21/M03 A3021 RMK AO2
KPOY 211815Z AUTO 33008KT 10SM CLR 20/M02 A3021 RMK AO2
KPOY 211755Z AUTO 32007KT 10SM CLR 18/M02 A3021 RMK AO2
KPOY 211735Z AUTO 32008KT 10SM CLR 20/M03 A3021 RMK AO2
KPOY 211715Z AUTO 33006KT 10SM CLR 21/M03 A3021 RMK AO2
KPOY 211655Z AUTO 31008KT 10SM CLR 21/M03 A3021 RMK AO2
KPOY 211635Z AUTO 31008KT 10SM CLR 21/M03 A3022 RMK AO2
KPOY 211615Z AUTO 33007KT 10SM CLR 21/M03 A3022 RMK AO2
KPOY 211555Z AUTO 33006KT 10SM CLR 19/M02 A3022 RMK AO2
KPOY 211535Z AUTO 34007KT 10SM CLR 17/M02 A3022 RMK AO2
KPOY 211515Z AUTO 33009KT 10SM CLR 17/M02 A3021 RMK AO2
KPOY 211455Z AUTO 31009KT 10SM CLR 17/M02 A3021 RMK AO2
KPOY 211435Z AUTO 31009KT 10SM CLR 16/M02 A3020 RMK AO2
KPOY 211415Z AUTO 31009KT 10SM CLR 15/M02 A3020 RMK AO2
KPOY 211355Z AUTO 31010KT 10SM CLR 15/M02 A3019 RMK AO2
KPOY 211335Z AUTO 31010KT 10SM CLR 15/M02 A3019 RMK AO2
KPOY 211315Z AUTO 30009KT 10SM CLR 15/M02 A3018 RMK AO2
KPOY 211255Z AUTO 29008KT 10SM CLR 15/M02 A3017 RMK AO2
KPOY 211235Z AUTO 31007KT 10SM CLR 15/M02 A3017 RMK AO2
KPOY 211215Z AUTO 34007KT 10SM CLR 15/M02 A3017 RMK AO2
KPOY 211155Z AUTO 32009KT 10SM CLR 15/M02 A3015 RMK AO2
KPOY 211135Z AUTO 32012KT 10SM CLR 15/M01 A3015 RMK AO2
KPOY 211115Z AUTO 31011KT 10SM CLR 15/M01 A3014 RMK AO2
KPOY 211055Z AUTO 33011KT 10SM CLR 15/M01 A3014 RMK AO2
KPOY 211035Z AUTO 33010KT 10SM CLR 15/M01 A3014 RMK AO2